Time;durP1;ratioP1;P1;durP2;ratioP2;P2;SDS_P1;SDS_P2;PMS_P1;PMS_P2;Temp;Humidity;BMP_temperature;BMP_pressure;BME280_temperature;BME280_humidity;BME280_pressure;Samples;Min_cycle;Max_cycle;Signal;HPM_P1;HPM_P2
2022/11/04 00:00:14;;;;;;;0.50;0.50;;;;;;;9.59;74.24;99576.34;5066112;28;20109;-74
2022/11/04 00:02:39;;;;;;;0.60;0.60;;;;;;;9.61;74.02;99574.59;5065773;28;20421;-73
2022/11/04 00:05:05;;;;;;;0.50;0.50;;;;;;;9.69;73.22;99574.47;5066123;28;20028;-71
2022/11/04 00:10:14;;;;;;;0.40;0.40;;;;;;;9.53;73.62;99569.56;5065861;28;20060;-70
2022/11/04 00:12:39;;;;;;;0.85;0.85;;;;;;;9.58;73.82;99588.47;5066158;28;20017;-71
2022/11/04 00:17:59;;;;;;;0.40;0.40;;;;;;;9.60;73.07;99568.56;5043762;28;20049;-73
2022/11/04 00:28:42;;;;;;;0.43;0.43;;;;;;;9.40;74.73;99569.78;5043227;28;20044;-71
2022/11/04 00:33:53;;;;;;;0.40;0.40;;;;;;;9.34;75.11;99553.47;5043524;28;20036;-73
2022/11/04 00:36:19;;;;;;;0.50;0.50;;;;;;;9.33;75.30;99542.25;5043186;28;20381;-74
2022/11/04 00:38:45;;;;;;;0.50;0.50;;;;;;;9.29;75.42;99538.88;5043264;28;20151;-73
2022/11/04 00:41:26;;;;;;;0.50;0.50;;;;;;;9.14;75.96;99554.66;5042669;28;20037;-69
2022/11/04 00:44:02;;;;;;;0.40;0.40;;;;;;;9.18;75.92;99540.78;5043120;28;20033;-71
2022/11/04 00:46:29;;;;;;;0.40;0.40;;;;;;;9.13;76.24;99540.88;5042805;28;20492;-70
2022/11/04 00:48:55;;;;;;;0.40;0.40;;;;;;;9.10;76.71;99537.47;5043216;28;20068;-72
2022/11/04 00:51:21;;;;;;;0.40;0.40;;;;;;;9.15;76.54;99533.06;5042947;28;20236;-70
2022/11/04 00:53:47;;;;;;;0.40;0.40;;;;;;;9.30;75.66;99534.53;5048621;28;20037;-71
2022/11/04 00:56:12;;;;;;;0.50;0.50;;;;;;;9.26;75.68;99532.88;5064900;28;20025;-68
2022/11/04 00:58:37;;;;;;;0.43;0.43;;;;;;;9.44;75.62;99541.22;5063944;28;20024;-74
2022/11/04 01:01:08;;;;;;;0.40;0.40;;;;;;;9.28;75.59;99538.91;5065091;28;20025;-72
2022/11/04 01:03:33;;;;;;;0.40;0.40;;;;;;;8.93;76.94;99536.00;5065116;28;20064;-68
2022/11/04 01:05:58;;;;;;;0.50;0.50;;;;;;;9.16;76.36;99551.19;5065161;28;20047;-70
2022/11/04 01:08:24;;;;;;;0.50;0.50;;;;;;;9.21;76.04;99543.31;5065254;28;20020;-71
2022/11/04 01:10:49;;;;;;;0.40;0.40;;;;;;;9.26;76.38;99553.59;5065254;28;20162;-73
2022/11/04 01:13:14;;;;;;;0.43;0.43;;;;;;;9.32;75.75;99503.44;5065189;28;20021;-74
2022/11/04 01:15:39;;;;;;;0.40;0.40;;;;;;;9.18;75.90;99520.91;5064873;28;20067;-71
2022/11/04 01:18:05;;;;;;;0.93;0.93;;;;;;;9.02;76.77;99514.28;5065180;28;20025;-72
2022/11/04 01:20:32;;;;;;;1.15;1.15;;;;;;;8.80;77.82;99509.47;5065286;28;20389;-70
2022/11/04 01:22:57;;;;;;;0.40;0.40;;;;;;;9.10;76.37;99520.22;5065112;28;20055;-69
2022/11/04 01:25:23;;;;;;;1.13;1.13;;;;;;;9.12;76.25;99521.00;5064903;28;20052;-70
2022/11/04 01:27:48;;;;;;;0.50;0.50;;;;;;;9.09;76.17;99502.94;5065076;28;20032;-68
2022/11/04 01:30:14;;;;;;;0.40;0.40;;;;;;;8.92;77.01;99498.91;5065056;28;20070;-69
2022/11/04 01:32:39;;;;;;;0.50;0.50;;;;;;;9.05;76.61;99496.97;5064914;28;20032;-73
2022/11/04 01:35:06;;;;;;;0.40;0.40;;;;;;;8.92;76.77;99490.28;5064822;28;20021;-70
2022/11/04 01:37:31;;;;;;;0.40;0.40;;;;;;;8.76;77.82;99494.84;5064936;28;20068;-70
2022/11/04 01:39:57;;;;;;;0.40;0.40;;;;;;;8.85;77.55;99486.94;5064861;28;20032;-71
2022/11/04 01:42:22;;;;;;;0.40;0.40;;;;;;;8.97;76.99;99479.84;5064830;28;20092;-72
2022/11/04 01:44:59;;;;;;;0.40;0.40;;;;;;;8.91;77.19;99484.25;5064719;28;20017;-70
2022/11/04 01:47:36;;;;;;;0.50;0.50;;;;;;;8.66;78.04;99476.88;5064628;28;20057;-70
2022/11/04 01:50:09;;;;;;;0.40;0.40;;;;;;;9.07;76.74;99470.19;5064915;28;20083;-73
2022/11/04 01:52:44;;;;;;;0.40;0.40;;;;;;;9.18;76.43;99486.41;5064880;28;20028;-71
2022/11/04 01:55:25;;;;;;;2.33;1.63;;;;;;;8.99;76.93;99489.31;5067955;28;20021;-72
2022/11/04 01:57:53;;;;;;;0.40;0.40;;;;;;;8.84;77.29;99469.72;5068643;28;20027;-70
2022/11/04 02:00:19;;;;;;;0.40;0.40;;;;;;;9.04;76.50;99471.13;5068386;28;20044;-71
2022/11/04 02:03:00;;;;;;;4.57;1.67;;;;;;;8.87;77.74;99459.31;5068194;28;20473;-71
2022/11/04 02:05:28;;;;;;;3.38;3.15;;;;;;;8.93;76.96;99460.91;5068615;28;20466;-71
2022/11/04 02:07:56;;;;;;;0.50;0.50;;;;;;;8.50;78.79;99452.94;5068441;28;20096;-70
2022/11/04 02:10:26;;;;;;;0.40;0.40;;;;;;;8.67;78.31;99452.72;5068214;28;20101;-71
2022/11/04 02:12:53;;;;;;;0.40;0.40;;;;;;;9.12;76.61;99440.75;5068305;28;20385;-72
2022/11/04 02:16:15;;;;;;;0.40;0.40;;;;;;;9.04;77.25;99432.28;5068144;28;20032;-71
2022/11/04 02:19:18;;;;;;;1.58;1.55;;;;;;;8.84;77.78;99446.41;5029329;28;20037;-69
2022/11/04 02:22:12;;;;;;;;;;;;;;;8.92;78.07;99444.56;5046134;28;20048;-72
2022/11/04 02:25:21;;;;;;;0.50;0.50;;;;;;;8.97;77.71;99435.84;5032956;28;19920;-71
2022/11/04 02:28:05;;;;;;;0.40;0.40;;;;;;;8.91;77.96;99431.63;5045706;28;20072;-69
2022/11/04 02:31:01;;;;;;;0.50;0.50;;;;;;;8.61;79.56;99428.69;5045255;28;20038;-69
2022/11/04 02:33:35;;;;;;;0.50;0.50;;;;;;;8.83;78.55;99434.38;5041965;28;20036;-69
2022/11/04 02:36:08;;;;;;;0.50;0.50;;;;;;;8.95;77.86;99438.47;5045606;28;20037;-69
2022/11/04 02:38:49;;;;;;;0.85;0.85;;;;;;;8.80;78.56;99430.06;5045616;28;20099;-70
2022/11/04 02:41:20;;;;;;;1.25;1.25;;;;;;;9.19;77.50;99441.50;5045603;28;20044;-71
2022/11/04 02:44:12;;;;;;;0.40;0.40;;;;;;;9.11;77.37;99428.69;5045313;28;20037;-72
2022/11/04 02:46:45;;;;;;;0.67;0.67;;;;;;;9.03;78.24;99415.88;5045423;28;20825;-71
2022/11/04 02:49:13;;;;;;;0.40;0.40;;;;;;;9.11;77.70;99423.50;5056926;28;20269;-71
2022/11/04 02:51:48;;;;;;;0.40;0.40;;;;;;;8.91;78.45;99418.69;5067574;28;20029;-70
2022/11/04 02:54:21;;;;;;;0.40;0.40;;;;;;;9.09;78.03;99425.25;5067780;28;20021;-71
2022/11/04 02:56:50;;;;;;;0.50;0.50;;;;;;;9.20;77.76;99412.13;5066618;28;20119;-71
2022/11/04 02:59:36;;;;;;;2.00;1.92;;;;;;;8.99;78.24;99405.63;5066117;28;20074;-70
2022/11/04 03:02:06;;;;;;;0.60;0.60;;;;;;;8.89;79.06;99390.25;5067052;28;20032;-71
2022/11/04 03:04:41;;;;;;;1.08;1.08;;;;;;;9.04;77.86;99403.81;5066768;28;20027;-69
2022/11/04 03:07:11;;;;;;;0.40;0.40;;;;;;;9.34;77.38;99383.38;5067343;28;20037;-71
2022/11/04 03:09:40;;;;;;;0.40;0.40;;;;;;;9.15;77.36;99404.44;5067304;28;20047;-69
2022/11/04 03:12:13;;;;;;;0.50;0.50;;;;;;;9.15;78.12;99419.97;5067110;28;20020;-69
2022/11/04 03:14:45;;;;;;;0.55;0.55;;;;;;;9.24;77.75;99402.56;5067153;28;20021;-71
2022/11/04 03:17:30;;;;;;;0.45;0.45;;;;;;;9.13;77.61;99408.81;5066986;28;20021;-71
2022/11/04 03:20:02;;;;;;;0.40;0.40;;;;;;;9.16;77.90;99394.94;5067212;28;20029;-71
2022/11/04 03:22:34;;;;;;;0.60;0.60;;;;;;;9.23;77.43;99393.09;5067139;28;20021;-70
2022/11/04 03:25:01;;;;;;;0.50;0.50;;;;;;;9.21;77.62;99393.13;5067063;28;20059;-70
2022/11/04 03:27:50;;;;;;;0.40;0.40;;;;;;;9.30;77.11;99386.91;5065791;28;20027;-71
2022/11/04 03:30:18;;;;;;;0.40;0.40;;;;;;;9.19;76.98;99405.25;5065550;28;20089;-69
2022/11/04 03:32:58;;;;;;;3.90;3.15;;;;;;;9.18;77.34;99391.44;5066592;28;20032;-70
2022/11/04 03:35:26;;;;;;;0.50;0.50;;;;;;;9.24;77.88;99392.19;5066733;28;20017;-73
2022/11/04 03:37:51;;;;;;;0.40;0.40;;;;;;;9.12;77.73;99378.59;5066615;28;20542;-70
2022/11/04 03:40:19;;;;;;;0.40;0.40;;;;;;;8.90;78.93;99391.94;5066462;28;20024;-72
2022/11/04 03:42:52;;;;;;;0.88;0.88;;;;;;;9.01;78.05;99390.91;5066593;28;20429;-68
2022/11/04 03:45:18;;;;;;;11.40;1.83;;;;;;;9.57;75.92;99386.38;5066278;28;20036;-69
2022/11/04 03:47:43;;;;;;;0.50;0.50;;;;;;;9.05;77.74;99379.59;5066384;28;20036;-68
2022/11/04 03:50:21;;;;;;;0.40;0.40;;;;;;;8.95;78.50;99375.47;5066605;28;20028;-68
2022/11/04 03:52:47;;;;;;;1.75;1.48;;;;;;;9.14;77.77;99376.84;5066565;28;20024;-69
2022/11/04 03:55:12;;;;;;;0.40;0.40;;;;;;;9.38;76.86;99372.06;5066186;28;20031;-68
2022/11/04 03:57:59;;;;;;;0.50;0.50;;;;;;;9.15;77.63;99370.78;5066300;28;20028;-70
2022/11/04 04:00:32;;;;;;;0.57;0.57;;;;;;;9.18;77.49;99370.72;5066073;28;20040;-67
2022/11/04 04:03:08;;;;;;;1.67;1.60;;;;;;;9.03;78.04;99361.50;5065851;28;20053;-70
2022/11/04 04:05:46;;;;;;;0.50;0.50;;;;;;;9.12;78.19;99360.47;5066249;28;20024;-71
2022/11/04 04:08:39;;;;;;;0.45;0.45;;;;;;;9.09;77.97;99360.53;5066211;28;20036;-69
2022/11/04 04:11:12;;;;;;;0.40;0.40;;;;;;;9.25;77.74;99360.25;5065905;28;20028;-70
2022/11/04 04:13:52;;;;;;;0.60;0.60;;;;;;;9.05;78.39;99354.59;5066117;28;20056;-69
2022/11/04 04:16:29;;;;;;;0.43;0.43;;;;;;;8.93;78.65;99359.97;5064933;28;20106;-70
2022/11/04 04:19:01;;;;;;;0.43;0.43;;;;;;;9.29;77.39;99367.06;5066138;28;20056;-68
2022/11/04 04:21:34;;;;;;;0.55;0.55;;;;;;;8.97;78.59;99361.63;5065787;28;20498;-70
2022/11/04 04:29:36;;;;;;;0.43;0.43;;;;;;;9.16;77.55;99367.31;5065838;28;20028;-67
2022/11/04 04:32:03;;;;;;;1.50;1.48;;;;;;;8.96;78.64;99364.25;5065713;28;20052;-69
2022/11/04 04:34:30;;;;;;;0.93;0.93;;;;;;;9.45;76.68;99369.34;5065678;28;20017;-70
2022/11/04 04:37:17;;;;;;;0.50;0.50;;;;;;;9.19;78.38;99376.75;5065715;28;20029;-69
2022/11/04 04:45:26;;;;;;;0.40;0.40;;;;;;;8.90;79.09;99367.78;5065469;28;20035;-69
2022/11/04 04:47:52;;;;;;;0.55;0.55;;;;;;;9.17;78.31;99375.91;5065404;28;20025;-71
2022/11/04 04:50:19;;;;;;;0.40;0.40;;;;;;;9.27;77.42;99363.66;5065691;28;20029;-70
2022/11/04 04:52:47;;;;;;;0.40;0.40;;;;;;;9.20;78.23;99357.72;5065245;28;20029;-70
2022/11/04 04:55:14;;;;;;;0.40;0.40;;;;;;;9.21;77.67;99376.72;5065404;28;20045;-71
2022/11/04 04:57:39;;;;;;;0.50;0.50;;;;;;;9.21;77.65;99358.59;5065318;28;20049;-72
2022/11/04 05:00:08;;;;;;;0.70;0.70;;;;;;;8.94;78.33;99359.09;5065213;28;20032;-69
2022/11/04 05:02:33;;;;;;;0.40;0.40;;;;;;;8.86;79.37;99361.84;5064752;28;20045;-70
2022/11/04 05:05:00;;;;;;;0.40;0.40;;;;;;;9.17;77.88;99360.38;5065285;28;20079;-69
2022/11/04 05:07:25;;;;;;;3.20;2.42;;;;;;;8.99;78.38;99351.25;5065468;28;20021;-70
2022/11/04 05:09:51;;;;;;;0.40;0.40;;;;;;;9.03;78.58;99356.34;5065169;28;20021;-70
2022/11/04 05:12:16;;;;;;;0.40;0.40;;;;;;;9.22;77.83;99363.75;5065110;28;20040;-69
2022/11/04 05:14:42;;;;;;;0.40;0.40;;;;;;;9.44;76.39;99367.66;5065103;28;20025;-70
2022/11/04 05:17:07;;;;;;;0.50;0.50;;;;;;;9.30;76.69;99346.31;5065043;28;20033;-72
2022/11/04 05:19:32;;;;;;;0.50;0.50;;;;;;;9.04;77.51;99362.38;5065182;28;20027;-69
2022/11/04 05:21:58;;;;;;;0.73;0.73;;;;;;;9.01;77.90;99359.84;5063772;28;20455;-72
2022/11/04 05:24:23;;;;;;;0.40;0.40;;;;;;;8.92;78.20;99392.78;5065005;28;20033;-69
2022/11/04 05:26:49;;;;;;;1.70;1.60;;;;;;;9.14;77.26;99366.47;5065080;28;20025;-72
2022/11/04 05:29:14;;;;;;;0.50;0.50;;;;;;;9.15;76.94;99365.59;5068581;28;20021;-69
2022/11/04 05:31:39;;;;;;;0.40;0.40;;;;;;;8.98;77.71;99363.34;5068821;28;20095;-69
2022/11/04 05:34:05;;;;;;;0.55;0.55;;;;;;;8.88;78.31;99364.41;5069073;28;20088;-69
2022/11/04 05:36:34;;;;;;;0.40;0.40;;;;;;;8.97;77.82;99358.19;5069047;28;20029;-68
2022/11/04 05:38:59;;;;;;;0.50;0.50;;;;;;;9.05;77.23;99349.41;5068998;28;20028;-71
2022/11/04 05:41:24;;;;;;;0.50;0.50;;;;;;;9.03;77.28;99358.06;5069115;28;20028;-67
2022/11/04 05:44:08;;;;;;;0.40;0.40;;;;;;;8.82;78.34;99359.34;5068889;28;20067;-69
2022/11/04 05:46:33;;;;;;;0.50;0.50;;;;;;;8.95;78.08;99358.22;5067791;28;20024;-70
2022/11/04 05:48:59;;;;;;;0.88;0.88;;;;;;;8.91;77.79;99357.41;5068853;28;20111;-70
2022/11/04 05:51:26;;;;;;;0.40;0.40;;;;;;;9.10;76.84;99353.63;5068819;28;20046;-68
2022/11/04 05:53:52;;;;;;;4.82;2.85;;;;;;;8.94;77.70;99353.94;5068535;28;20029;-68
2022/11/04 05:56:17;;;;;;;0.40;0.40;;;;;;;9.38;75.57;99353.94;5068410;28;20035;-69
2022/11/04 05:58:43;;;;;;;0.40;0.40;;;;;;;9.17;76.76;99353.47;5068025;28;20052;-68
2022/11/04 06:01:32;;;;;;;0.40;0.40;;;;;;;8.93;77.45;99341.84;5067547;28;20035;-67
2022/11/04 06:04:00;;;;;;;0.60;0.60;;;;;;;9.39;75.88;99347.84;5064307;28;20037;-69
2022/11/04 06:06:28;;;;;;;0.35;0.35;;;;;;;9.38;75.58;99356.53;5068157;28;20029;-68
2022/11/04 06:08:53;;;;;;;0.40;0.40;;;;;;;9.05;77.01;99357.16;5068430;28;20024;-68
2022/11/04 06:11:20;;;;;;;0.70;0.70;;;;;;;8.86;78.18;99367.00;5068611;28;20025;-70
2022/11/04 06:13:45;;;;;;;0.68;0.68;;;;;;;9.35;76.00;99359.19;5068355;28;20043;-70
2022/11/04 06:16:11;;;;;;;1.10;1.10;;;;;;;9.10;76.65;99358.81;5068041;28;20029;-67
2022/11/04 06:18:36;;;;;;;0.68;0.65;;;;;;;8.90;78.09;99384.19;5068404;28;20021;-69
2022/11/04 06:21:06;;;;;;;0.40;0.40;;;;;;;9.39;76.00;99378.94;5067989;28;20025;-69
2022/11/04 06:23:31;;;;;;;0.40;0.40;;;;;;;8.92;78.04;99376.38;5068326;28;20032;-68
2022/11/04 06:25:57;;;;;;;0.50;0.50;;;;;;;8.87;78.29;99388.56;5068055;28;20025;-68
2022/11/04 06:28:22;;;;;;;0.50;0.50;;;;;;;9.00;78.16;99363.31;5067936;28;20017;-70
2022/11/04 06:30:47;;;;;;;0.40;0.40;;;;;;;9.10;77.42;99367.44;5068017;28;20025;-67
2022/11/04 06:33:13;;;;;;;0.47;0.47;;;;;;;9.08;77.91;99361.44;5067584;28;20024;-68
2022/11/04 06:35:38;;;;;;;0.40;0.40;;;;;;;9.16;77.42;99380.25;5068009;28;20021;-68
2022/11/04 06:38:03;;;;;;;0.40;0.40;;;;;;;9.20;77.32;99349.13;5067815;28;20031;-68
2022/11/04 06:40:29;;;;;;;0.50;0.50;;;;;;;8.98;78.24;99349.56;5067059;28;20025;-68
2022/11/04 06:42:55;;;;;;;0.68;0.68;;;;;;;8.95;78.56;99354.75;5068001;28;20035;-69
2022/11/04 06:45:20;;;;;;;0.40;0.40;;;;;;;9.46;76.67;99363.25;5067603;28;20024;-73
2022/11/04 06:47:45;;;;;;;1.25;1.25;;;;;;;9.38;76.62;99358.25;5067623;28;20032;-73
2022/11/04 06:50:11;;;;;;;0.60;0.60;;;;;;;9.22;77.45;99347.38;5067926;28;20025;-72
2022/11/04 06:52:37;;;;;;;0.70;0.70;;;;;;;9.48;76.26;99344.22;5067623;28;20484;-72
2022/11/04 06:55:02;;;;;;;0.50;0.50;;;;;;;9.27;76.80;99343.78;5067201;28;20080;-69
2022/11/04 06:57:28;;;;;;;1.48;1.38;;;;;;;9.09;78.14;99354.53;5067545;28;20557;-70
2022/11/04 06:59:53;;;;;;;0.50;0.50;;;;;;;9.20;77.31;99338.78;5067541;28;20055;-70
2022/11/04 07:02:18;;;;;;;1.13;0.93;;;;;;;9.46;76.69;99350.31;5067145;28;20126;-70
2022/11/04 07:04:43;;;;;;;0.50;0.50;;;;;;;9.31;76.93;99336.81;5067422;28;20017;-69
2022/11/04 07:07:09;;;;;;;7.80;2.45;;;;;;;9.18;77.12;99339.63;5067346;28;20052;-69
2022/11/04 07:09:34;;;;;;;0.50;0.50;;;;;;;9.32;77.16;99345.41;5067556;28;20021;-71
2022/11/04 07:12:00;;;;;;;0.60;0.60;;;;;;;9.57;75.59;99343.16;5067527;28;20164;-70
2022/11/04 07:14:26;;;;;;;0.40;0.40;;;;;;;9.31;76.68;99344.59;5067297;28;20017;-68
2022/11/04 07:16:51;;;;;;;0.77;0.77;;;;;;;9.21;77.32;99340.47;5067220;28;20029;-72
2022/11/04 07:19:17;;;;;;;0.40;0.40;;;;;;;9.39;76.29;99342.66;5067257;28;20029;-69
2022/11/04 07:21:42;;;;;;;0.40;0.40;;;;;;;9.15;77.72;99331.94;5066929;28;20093;-69
2022/11/04 07:24:07;;;;;;;0.40;0.40;;;;;;;9.54;75.62;99344.09;5067112;28;20048;-69
2022/11/04 07:26:33;;;;;;;0.40;0.40;;;;;;;9.50;76.30;99326.94;5066482;28;20079;-74
2022/11/04 07:28:59;;;;;;;0.57;0.57;;;;;;;9.32;76.69;99348.88;5065960;28;20067;-68
2022/11/04 07:31:25;;;;;;;0.40;0.40;;;;;;;9.26;77.08;99339.50;5066295;28;20025;-68
2022/11/04 07:33:50;;;;;;;0.82;0.82;;;;;;;9.33;77.51;99340.22;5065848;28;20121;-71
2022/11/04 07:36:16;;;;;;;0.40;0.40;;;;;;;9.68;75.62;99337.75;5066754;28;20105;-73
2022/11/04 07:38:42;;;;;;;0.40;0.40;;;;;;;9.37;77.12;99328.06;5067064;28;20059;-72
2022/11/04 07:41:07;;;;;;;0.60;0.60;;;;;;;9.63;76.00;99361.19;5066820;28;20411;-70
2022/11/04 07:43:33;;;;;;;0.50;0.50;;;;;;;9.59;76.03;99338.81;5066902;28;20021;-70
2022/11/04 07:46:04;;;;;;;0.50;0.50;;;;;;;9.60;76.11;99350.88;5066489;28;20048;-67
2022/11/04 07:48:29;;;;;;;0.40;0.40;;;;;;;9.59;76.01;99346.59;5066966;28;20059;-70
2022/11/04 07:50:57;;;;;;;0.50;0.50;;;;;;;9.67;76.01;99352.47;5065838;28;20025;-71
2022/11/04 07:53:22;;;;;;;0.40;0.40;;;;;;;9.73;76.04;99348.03;5066467;28;20373;-71
2022/11/04 07:55:49;;;;;;;0.40;0.40;;;;;;;9.76;75.17;99358.34;5066549;28;20081;-69
2022/11/04 07:58:16;;;;;;;1.00;1.00;;;;;;;9.95;75.44;99348.41;5066585;28;20029;-73
2022/11/04 08:00:41;;;;;;;0.40;0.40;;;;;;;9.90;75.69;99355.44;5066539;28;20529;-73
2022/11/04 08:03:07;;;;;;;0.40;0.40;;;;;;;9.64;76.56;99351.69;5066176;28;20045;-70
2022/11/04 08:05:32;;;;;;;0.40;0.40;;;;;;;10.17;74.74;99340.97;5066230;28;20025;-74
2022/11/04 08:07:57;;;;;;;0.40;0.40;;;;;;;10.12;74.29;99348.00;5066420;28;20021;-70
2022/11/04 08:10:23;;;;;;;2.97;1.90;;;;;;;9.92;75.51;99343.28;5066374;28;20021;-72
2022/11/04 08:12:50;;;;;;;0.40;0.40;;;;;;;10.00;75.37;99343.13;5066247;28;20025;-70
2022/11/04 08:15:15;;;;;;;0.40;0.40;;;;;;;10.14;75.25;99342.78;5066078;28;20028;-71
2022/11/04 08:17:40;;;;;;;0.47;0.47;;;;;;;9.97;75.80;99335.41;5065958;28;20032;-71
2022/11/04 08:20:07;;;;;;;0.40;0.40;;;;;;;10.00;75.59;99330.16;5066023;28;20025;-70
2022/11/04 08:22:33;;;;;;;0.50;0.50;;;;;;;10.08;75.70;99327.38;5065948;28;20108;-70
2022/11/04 08:24:58;;;;;;;0.40;0.40;;;;;;;10.06;75.91;99319.63;5066067;28;20548;-70
2022/11/04 08:27:24;;;;;;;0.40;0.40;;;;;;;10.20;74.99;99328.81;5065798;28;20036;-68
2022/11/04 08:29:50;;;;;;;0.40;0.40;;;;;;;10.24;75.45;99310.53;5065778;28;20024;-71
2022/11/04 08:32:15;;;;;;;1.20;1.20;;;;;;;10.30;75.02;99309.56;5065649;28;20082;-67
2022/11/04 08:34:40;;;;;;;0.85;0.85;;;;;;;10.31;75.17;99316.44;5065878;28;20031;-71
2022/11/04 08:37:06;;;;;;;0.47;0.47;;;;;;;10.08;76.36;99323.03;5065853;28;20029;-69
2022/11/04 08:39:31;;;;;;;9.50;4.03;;;;;;;10.66;73.14;99287.91;5065826;28;20021;-71
2022/11/04 08:41:57;;;;;;;0.40;0.40;;;;;;;10.63;73.31;99294.03;5065794;28;20048;-71
2022/11/04 08:44:22;;;;;;;1.15;1.10;;;;;;;10.76;73.35;99304.94;5065662;28;20473;-73
2022/11/04 08:46:48;;;;;;;0.98;0.98;;;;;;;10.50;74.44;99295.22;5065470;28;20558;-73
2022/11/04 08:49:13;;;;;;;2.42;1.65;;;;;;;10.21;75.41;99309.78;5065359;28;20146;-69
2022/11/04 08:51:42;;;;;;;0.60;0.57;;;;;;;10.22;75.67;99303.69;5065382;28;20032;-69
2022/11/04 08:54:08;;;;;;;0.40;0.40;;;;;;;10.82;73.42;99308.25;5065604;28;20071;-71
2022/11/04 08:56:35;;;;;;;0.52;0.52;;;;;;;10.35;75.19;99310.25;5065437;28;20033;-68
2022/11/04 08:59:03;;;;;;;0.77;0.77;;;;;;;10.38;75.27;99286.84;5065467;28;20093;-70
2022/11/04 09:01:29;;;;;;;0.50;0.50;;;;;;;10.37;75.58;99305.91;5065405;28;20052;-70
2022/11/04 09:03:54;;;;;;;0.40;0.40;;;;;;;10.81;73.56;99291.84;5064857;28;20048;-72
2022/11/04 09:06:23;;;;;;;0.40;0.40;;;;;;;10.74;73.77;99321.44;5064169;28;20090;-67
2022/11/04 09:08:50;;;;;;;1.13;1.13;;;;;;;10.41;75.02;99297.13;5065550;28;20059;-69
2022/11/04 09:11:16;;;;;;;0.50;0.50;;;;;;;10.69;74.56;99281.78;5065291;28;20021;-73
2022/11/04 09:13:43;;;;;;;0.40;0.40;;;;;;;10.90;73.34;99286.38;5065679;28;20048;-73
2022/11/04 09:16:10;;;;;;;0.40;0.40;;;;;;;10.75;73.73;99299.78;5065247;28;20016;-68
2022/11/04 09:18:35;;;;;;;0.60;0.60;;;;;;;10.56;74.88;99282.09;5065481;28;20025;-71
2022/11/04 09:21:02;;;;;;;0.52;0.52;;;;;;;10.73;74.48;99301.56;5065186;28;20033;-70
2022/11/04 09:23:28;;;;;;;0.40;0.40;;;;;;;10.65;74.68;99297.41;5065269;28;20020;-68
2022/11/04 09:25:56;;;;;;;0.68;0.68;;;;;;;10.90;73.96;99288.97;5065093;28;20107;-74
2022/11/04 09:28:21;;;;;;;0.75;0.75;;;;;;;10.70;74.47;99291.28;5065363;28;20021;-73
2022/11/04 09:30:47;;;;;;;0.40;0.40;;;;;;;11.10;72.56;99305.72;5065096;28;20085;-72
2022/11/04 09:33:12;;;;;;;0.50;0.50;;;;;;;10.89;73.82;99284.66;5064984;28;20024;-71
2022/11/04 09:35:37;;;;;;;1.67;1.58;;;;;;;11.00;73.75;99296.50;5065235;28;20017;-73
2022/11/04 09:38:03;;;;;;;0.50;0.50;;;;;;;10.79;74.18;99288.41;5065220;28;20052;-71
2022/11/04 09:40:28;;;;;;;0.50;0.50;;;;;;;11.09;73.21;99290.19;5065063;28;20032;-74
2022/11/04 09:43:13;;;;;;;1.42;1.42;;;;;;;11.03;73.03;99280.84;5065339;28;20025;-70
2022/11/04 09:45:40;;;;;;;0.50;0.50;;;;;;;10.77;74.16;99288.47;5065007;28;20071;-70
2022/11/04 09:48:11;;;;;;;1.02;1.02;;;;;;;10.69;74.88;99277.44;5064817;28;20059;-69
2022/11/04 09:50:45;;;;;;;3.67;3.40;;;;;;;11.05;73.32;99273.88;5064993;28;20031;-69
2022/11/04 09:53:25;;;;;;;0.55;0.55;;;;;;;10.98;73.74;99273.19;5064997;28;20262;-69
2022/11/04 09:55:57;;;;;;;1.90;1.75;;;;;;;11.17;72.72;99266.63;5064675;28;20021;-70
2022/11/04 09:58:22;;;;;;;;;;;;;;;11.17;72.53;99271.81;5065148;28;20040;-71
2022/11/04 10:01:21;;;;;;;2.83;2.70;;;;;;;11.32;71.80;99260.97;5064774;28;19908;-72
2022/11/04 10:04:00;;;;;;;0.93;0.93;;;;;;;10.99;73.36;99272.28;5059716;28;20049;-69
2022/11/04 10:06:37;;;;;;;2.05;1.95;;;;;;;11.02;73.54;99268.75;5065019;28;20435;-72
2022/11/04 10:09:08;;;;;;;0.50;0.50;;;;;;;11.27;72.58;99273.22;5063643;28;20033;-72
2022/11/04 10:12:10;;;;;;;1.00;1.00;;;;;;;11.10;73.55;99258.97;5064723;28;20025;-70
2022/11/04 10:14:51;;;;;;;0.40;0.40;;;;;;;11.12;73.19;99272.78;5042954;28;20033;-70
2022/11/04 10:17:34;;;;;;;0.50;0.50;;;;;;;11.04;73.32;99264.34;5046031;28;20030;-70
2022/11/04 10:20:02;;;;;;;0.40;0.40;;;;;;;10.96;74.02;99269.75;5046101;28;20516;-70
2022/11/04 10:22:57;;;;;;;2.38;2.28;;;;;;;11.45;71.66;99266.63;5045957;28;20033;-71
2022/11/04 10:26:06;;;;;;;0.40;0.40;;;;;;;11.28;72.20;99282.72;5037060;28;20503;-72
2022/11/04 10:28:40;;;;;;;0.40;0.40;;;;;;;11.08;73.33;99272.91;5026811;28;20071;-73
2022/11/04 10:31:11;;;;;;;0.80;0.80;;;;;;;11.53;71.35;99282.00;5045998;28;20096;-72
2022/11/04 10:33:42;;;;;;;0.50;0.50;;;;;;;11.16;72.74;99283.94;5045967;28;20059;-68
2022/11/04 10:36:12;;;;;;;0.40;0.40;;;;;;;11.49;71.50;99282.97;5046151;28;20030;-71
2022/11/04 10:38:49;;;;;;;1.42;1.40;;;;;;;11.03;73.58;99276.50;5045872;28;20053;-70
2022/11/04 10:41:23;;;;;;;0.50;0.50;;;;;;;11.52;71.58;99280.28;5045575;28;20077;-75
2022/11/04 10:44:28;;;;;;;1.20;1.20;;;;;;;11.40;72.04;99253.78;5045578;28;20037;-74
2022/11/04 10:46:59;;;;;;;0.50;0.50;;;;;;;11.46;71.68;99260.53;5044814;28;20044;-72
2022/11/04 10:49:43;;;;;;;1.67;1.58;;;;;;;11.53;71.84;99274.19;5045711;28;20375;-71
2022/11/04 10:52:09;;;;;;;1.98;1.88;;;;;;;11.28;72.65;99269.72;5067659;28;20074;-72
2022/11/04 10:54:44;;;;;;;1.17;1.17;;;;;;;11.51;72.26;99255.19;5067758;28;20041;-72
2022/11/04 10:57:12;;;;;;;0.73;0.73;;;;;;;11.52;71.77;99262.09;5067478;28;20044;-70
2022/11/04 10:59:57;;;;;;;0.40;0.40;;;;;;;11.39;72.86;99256.41;5067662;28;20029;-71
2022/11/04 11:02:38;;;;;;;0.40;0.40;;;;;;;11.43;72.33;99259.78;5067270;28;20500;-70
2022/11/04 11:05:18;;;;;;;1.75;1.60;;;;;;;11.37;73.11;99256.44;5067657;28;20021;-71
2022/11/04 11:07:49;;;;;;;0.85;0.85;;;;;;;11.47;72.53;99256.19;5067318;28;20388;-71
2022/11/04 11:10:19;;;;;;;0.50;0.50;;;;;;;11.27;73.46;99257.63;5067285;28;20021;-70
2022/11/04 11:12:56;;;;;;;0.40;0.40;;;;;;;11.51;72.56;99260.41;5067634;28;20025;-71
2022/11/04 11:15:31;;;;;;;0.80;0.75;;;;;;;11.56;72.47;99261.09;5067334;28;20021;-69
2022/11/04 11:18:12;;;;;;;0.40;0.40;;;;;;;11.65;71.85;99273.81;5067189;28;20060;-72
2022/11/04 11:20:39;;;;;;;0.40;0.40;;;;;;;11.46;72.71;99264.88;5067229;28;20021;-68
2022/11/04 11:23:25;;;;;;;1.33;1.23;;;;;;;11.92;71.26;99259.16;5067157;28;20386;-72
2022/11/04 11:25:50;;;;;;;2.50;2.30;;;;;;;11.50;72.82;99258.69;5066404;28;20036;-71
2022/11/04 11:28:24;;;;;;;0.40;0.40;;;;;;;11.60;72.85;99260.09;5065829;28;20036;-72
2022/11/04 11:30:58;;;;;;;0.95;0.95;;;;;;;11.60;73.07;99265.31;5066043;28;20051;-73
2022/11/04 11:33:26;;;;;;;0.45;0.45;;;;;;;11.95;71.14;99272.03;5066875;28;20104;-69
2022/11/04 11:35:57;;;;;;;0.40;0.40;;;;;;;11.80;71.44;99276.84;5066971;28;20021;-69
2022/11/04 11:38:26;;;;;;;0.70;0.70;;;;;;;11.44;73.63;99249.31;5067025;28;20032;-72
2022/11/04 11:41:02;;;;;;;1.00;1.00;;;;;;;11.81;71.76;99273.31;5066800;28;20020;-72
2022/11/04 11:43:29;;;;;;;0.68;0.68;;;;;;;11.30;73.63;99280.94;5067150;28;20024;-71
2022/11/04 11:45:56;;;;;;;1.20;1.20;;;;;;;11.39;74.04;99262.47;5066742;28;20479;-72
2022/11/04 11:48:41;;;;;;;0.40;0.40;;;;;;;11.08;75.80;99270.31;5066610;28;20046;-74
2022/11/04 11:51:11;;;;;;;0.40;0.40;;;;;;;11.15;76.75;99274.41;5066816;28;20021;-74
2022/11/04 11:53:39;;;;;;;0.65;0.65;;;;;;;11.07;76.82;99277.25;5066738;28;20086;-73
2022/11/04 11:56:26;;;;;;;0.40;0.40;;;;;;;10.82;78.51;99285.75;5066571;28;20036;-73
2022/11/04 11:59:14;;;;;;;0.40;0.40;;;;;;;10.75;79.04;99281.63;5066618;28;20103;-73
2022/11/04 12:02:00;;;;;;;0.40;0.40;;;;;;;10.72;79.63;99273.91;5066317;28;20032;-74
2022/11/04 12:04:26;;;;;;;0.40;0.40;;;;;;;10.29;81.82;99271.50;5066459;28;20029;-72
2022/11/04 12:06:51;;;;;;;0.57;0.57;;;;;;;10.62;80.50;99274.13;5066266;28;20028;-72
2022/11/04 12:09:22;;;;;;;0.52;0.52;;;;;;;10.78;79.59;99258.16;5066339;28;20028;-74
2022/11/04 12:12:23;;;;;;;0.60;0.60;;;;;;;10.40;81.46;99269.50;5066189;28;20028;-70
2022/11/04 12:15:11;;;;;;;0.40;0.40;;;;;;;10.79;80.13;99262.47;5043662;28;20076;-71
2022/11/04 12:18:07;;;;;;;3.55;1.88;;;;;;;10.48;81.26;99268.50;5038249;28;20203;-69
2022/11/04 12:21:00;;;;;;;0.95;0.95;;;;;;;10.38;82.73;99288.59;5044001;28;20092;-72
2022/11/04 12:23:33;;;;;;;0.50;0.50;;;;;;;10.44;82.17;99256.44;5043788;28;20087;-74